sensor_id;sensor_type;location;lat;lon;timestamp;P1;durP1;ratioP1;P2;durP2;ratioP2
6823;SDS011;58633;49.470;11.004;2022-11-09T00:00:20;5.30;;;3.63;;
6823;SDS011;58633;49.470;11.004;2022-11-09T00:02:46;5.13;;;3.80;;
6823;SDS011;58633;49.470;11.004;2022-11-09T00:05:11;6.28;;;3.88;;
6823;SDS011;58633;49.470;11.004;2022-11-09T00:07:37;4.32;;;3.50;;
6823;SDS011;58633;49.470;11.004;2022-11-09T00:10:03;4.70;;;3.60;;
6823;SDS011;58633;49.470;11.004;2022-11-09T00:12:30;6.90;;;3.95;;
6823;SDS011;58633;49.470;11.004;2022-11-09T00:14:56;5.30;;;3.55;;
6823;SDS011;58633;49.470;11.004;2022-11-09T00:17:21;5.57;;;3.65;;
6823;SDS011;58633;49.470;11.004;2022-11-09T00:19:47;4.60;;;3.40;;
6823;SDS011;58633;49.470;11.004;2022-11-09T00:22:12;5.28;;;3.72;;
6823;SDS011;58633;49.470;11.004;2022-11-09T00:24:38;4.40;;;3.30;;
6823;SDS011;58633;49.470;11.004;2022-11-09T00:27:04;5.28;;;3.78;;
6823;SDS011;58633;49.470;11.004;2022-11-09T00:29:30;6.30;;;3.60;;
6823;SDS011;58633;49.470;11.004;2022-11-09T00:31:55;4.60;;;3.80;;
6823;SDS011;58633;49.470;11.004;2022-11-09T00:34:21;6.85;;;4.10;;
6823;SDS011;58633;49.470;11.004;2022-11-09T00:36:47;9.02;;;3.83;;
6823;SDS011;58633;49.470;11.004;2022-11-09T00:39:12;5.65;;;4.05;;
6823;SDS011;58633;49.470;11.004;2022-11-09T00:41:38;4.95;;;3.28;;
6823;SDS011;58633;49.470;11.004;2022-11-09T00:44:05;5.38;;;3.65;;
6823;SDS011;58633;49.470;11.004;2022-11-09T00:46:31;6.72;;;3.80;;
6823;SDS011;58633;49.470;11.004;2022-11-09T00:48:57;6.40;;;4.18;;
6823;SDS011;58633;49.470;11.004;2022-11-09T00:51:23;12.85;;;5.20;;
6823;SDS011;58633;49.470;11.004;2022-11-09T00:53:49;9.65;;;4.53;;
6823;SDS011;58633;49.470;11.004;2022-11-09T00:56:18;6.53;;;3.63;;
6823;SDS011;58633;49.470;11.004;2022-11-09T00:58:44;7.30;;;4.07;;
6823;SDS011;58633;49.470;11.004;2022-11-09T01:01:18;4.05;;;3.50;;
6823;SDS011;58633;49.470;11.004;2022-11-09T01:03:44;5.88;;;3.67;;
6823;SDS011;58633;49.470;11.004;2022-11-09T01:06:14;4.53;;;3.50;;
6823;SDS011;58633;49.470;11.004;2022-11-09T01:08:41;3.72;;;3.30;;
6823;SDS011;58633;49.470;11.004;2022-11-09T01:11:08;6.32;;;3.97;;
6823;SDS011;58633;49.470;11.004;2022-11-09T01:13:35;5.18;;;3.25;;
6823;SDS011;58633;49.470;11.004;2022-11-09T01:16:03;5.78;;;3.50;;
6823;SDS011;58633;49.470;11.004;2022-11-09T01:18:31;5.13;;;3.55;;
6823;SDS011;58633;49.470;11.004;2022-11-09T01:20:57;6.13;;;3.60;;
6823;SDS011;58633;49.470;11.004;2022-11-09T01:23:22;4.93;;;3.78;;
6823;SDS011;58633;49.470;11.004;2022-11-09T01:25:48;4.13;;;3.25;;
6823;SDS011;58633;49.470;11.004;2022-11-09T01:28:13;4.03;;;3.50;;
6823;SDS011;58633;49.470;11.004;2022-11-09T01:30:39;6.20;;;3.97;;
6823;SDS011;58633;49.470;11.004;2022-11-09T01:33:07;6.10;;;3.85;;
6823;SDS011;58633;49.470;11.004;2022-11-09T01:35:34;4.97;;;3.55;;
6823;SDS011;58633;49.470;11.004;2022-11-09T01:38:02;6.57;;;3.75;;
6823;SDS011;58633;49.470;11.004;2022-11-09T01:40:28;8.43;;;3.75;;
6823;SDS011;58633;49.470;11.004;2022-11-09T01:42:55;4.45;;;3.35;;
6823;SDS011;58633;49.470;11.004;2022-11-09T01:45:23;5.75;;;3.40;;
6823;SDS011;58633;49.470;11.004;2022-11-09T01:50:29;5.63;;;3.10;;
6823;SDS011;58633;49.470;11.004;2022-11-09T01:53:11;6.78;;;3.30;;
6823;SDS011;58633;49.470;11.004;2022-11-09T01:55:37;5.68;;;3.20;;
6823;SDS011;58633;49.470;11.004;2022-11-09T01:58:05;6.55;;;3.22;;
6823;SDS011;58633;49.470;11.004;2022-11-09T02:00:34;5.93;;;3.22;;
6823;SDS011;58633;49.470;11.004;2022-11-09T02:03:06;5.50;;;3.47;;
6823;SDS011;58633;49.470;11.004;2022-11-09T02:06:04;3.38;;;3.08;;
6823;SDS011;58633;49.470;11.004;2022-11-09T02:08:33;3.95;;;3.13;;
6823;SDS011;58633;49.470;11.004;2022-11-09T02:11:03;3.97;;;3.38;;
6823;SDS011;58633;49.470;11.004;2022-11-09T02:13:47;4.53;;;3.40;;
6823;SDS011;58633;49.470;11.004;2022-11-09T02:16:17;6.18;;;3.42;;
6823;SDS011;58633;49.470;11.004;2022-11-09T02:18:50;6.15;;;3.30;;
6823;SDS011;58633;49.470;11.004;2022-11-09T02:21:17;4.68;;;2.88;;
6823;SDS011;58633;49.470;11.004;2022-11-09T02:23:44;4.55;;;3.33;;
6823;SDS011;58633;49.470;11.004;2022-11-09T02:26:12;4.40;;;3.15;;
6823;SDS011;58633;49.470;11.004;2022-11-09T02:28:43;5.93;;;3.30;;
6823;SDS011;58633;49.470;11.004;2022-11-09T02:31:10;7.57;;;3.97;;
6823;SDS011;58633;49.470;11.004;2022-11-09T02:33:51;4.80;;;2.90;;
6823;SDS011;58633;49.470;11.004;2022-11-09T02:36:17;3.35;;;2.90;;
6823;SDS011;58633;49.470;11.004;2022-11-09T02:38:43;4.18;;;3.20;;
6823;SDS011;58633;49.470;11.004;2022-11-09T02:41:09;4.78;;;3.20;;
6823;SDS011;58633;49.470;11.004;2022-11-09T02:43:35;3.30;;;3.00;;
6823;SDS011;58633;49.470;11.004;2022-11-09T02:46:02;4.43;;;2.88;;
6823;SDS011;58633;49.470;11.004;2022-11-09T02:48:28;3.90;;;3.00;;
6823;SDS011;58633;49.470;11.004;2022-11-09T02:50:53;5.90;;;3.25;;
6823;SDS011;58633;49.470;11.004;2022-11-09T02:53:19;5.05;;;2.92;;
6823;SDS011;58633;49.470;11.004;2022-11-09T02:55:44;3.97;;;2.90;;
6823;SDS011;58633;49.470;11.004;2022-11-09T02:58:10;6.60;;;3.30;;
6823;SDS011;58633;49.470;11.004;2022-11-09T03:00:36;4.28;;;3.20;;
6823;SDS011;58633;49.470;11.004;2022-11-09T03:03:02;3.58;;;3.03;;
6823;SDS011;58633;49.470;11.004;2022-11-09T03:05:28;5.45;;;3.20;;
6823;SDS011;58633;49.470;11.004;2022-11-09T03:07:53;3.92;;;3.10;;
6823;SDS011;58633;49.470;11.004;2022-11-09T03:10:19;4.13;;;3.10;;
6823;SDS011;58633;49.470;11.004;2022-11-09T03:12:44;4.05;;;2.85;;
6823;SDS011;58633;49.470;11.004;2022-11-09T03:15:10;4.22;;;2.83;;
6823;SDS011;58633;49.470;11.004;2022-11-09T03:17:35;4.80;;;3.10;;
6823;SDS011;58633;49.470;11.004;2022-11-09T03:20:01;4.45;;;3.10;;
6823;SDS011;58633;49.470;11.004;2022-11-09T03:22:28;4.28;;;3.20;;
6823;SDS011;58633;49.470;11.004;2022-11-09T03:24:54;4.63;;;3.05;;
6823;SDS011;58633;49.470;11.004;2022-11-09T03:27:19;4.20;;;3.00;;
6823;SDS011;58633;49.470;11.004;2022-11-09T03:29:45;6.35;;;3.63;;
6823;SDS011;58633;49.470;11.004;2022-11-09T03:32:11;4.75;;;3.28;;
6823;SDS011;58633;49.470;11.004;2022-11-09T03:34:36;6.13;;;3.38;;
6823;SDS011;58633;49.470;11.004;2022-11-09T03:37:02;8.57;;;3.22;;
6823;SDS011;58633;49.470;11.004;2022-11-09T03:39:28;3.85;;;3.00;;
6823;SDS011;58633;49.470;11.004;2022-11-09T03:41:54;4.28;;;3.50;;
6823;SDS011;58633;49.470;11.004;2022-11-09T03:44:19;4.30;;;3.20;;
6823;SDS011;58633;49.470;11.004;2022-11-09T03:46:45;5.97;;;3.13;;
6823;SDS011;58633;49.470;11.004;2022-11-09T03:49:12;4.32;;;3.33;;
6823;SDS011;58633;49.470;11.004;2022-11-09T03:51:37;4.72;;;3.22;;
6823;SDS011;58633;49.470;11.004;2022-11-09T03:54:03;3.92;;;3.00;;
6823;SDS011;58633;49.470;11.004;2022-11-09T03:56:28;5.20;;;3.10;;
6823;SDS011;58633;49.470;11.004;2022-11-09T03:58:54;4.75;;;2.97;;
6823;SDS011;58633;49.470;11.004;2022-11-09T04:01:20;4.40;;;3.05;;
6823;SDS011;58633;49.470;11.004;2022-11-09T04:03:46;4.07;;;3.40;;
6823;SDS011;58633;49.470;11.004;2022-11-09T04:06:11;6.07;;;3.33;;
6823;SDS011;58633;49.470;11.004;2022-11-09T04:08:37;4.20;;;2.97;;
6823;SDS011;58633;49.470;11.004;2022-11-09T04:11:03;5.13;;;3.13;;
6823;SDS011;58633;49.470;11.004;2022-11-09T04:13:28;3.97;;;3.20;;
6823;SDS011;58633;49.470;11.004;2022-11-09T04:15:54;6.68;;;3.10;;
6823;SDS011;58633;49.470;11.004;2022-11-09T04:18:20;5.15;;;3.22;;
6823;SDS011;58633;49.470;11.004;2022-11-09T04:20:46;6.35;;;3.42;;
6823;SDS011;58633;49.470;11.004;2022-11-09T04:23:12;3.47;;;3.17;;
6823;SDS011;58633;49.470;11.004;2022-11-09T04:25:39;3.45;;;3.13;;
6823;SDS011;58633;49.470;11.004;2022-11-09T04:28:06;4.95;;;3.63;;
6823;SDS011;58633;49.470;11.004;2022-11-09T04:30:34;5.65;;;4.03;;
6823;SDS011;58633;49.470;11.004;2022-11-09T04:33:01;6.15;;;3.60;;
6823;SDS011;58633;49.470;11.004;2022-11-09T04:35:27;5.22;;;3.33;;
6823;SDS011;58633;49.470;11.004;2022-11-09T04:38:01;4.35;;;3.25;;
6823;SDS011;58633;49.470;11.004;2022-11-09T04:40:30;5.30;;;3.75;;
6823;SDS011;58633;49.470;11.004;2022-11-09T04:43:00;6.47;;;3.92;;
6823;SDS011;58633;49.470;11.004;2022-11-09T04:45:28;10.35;;;3.88;;
6823;SDS011;58633;49.470;11.004;2022-11-09T04:47:57;4.45;;;3.33;;
6823;SDS011;58633;49.470;11.004;2022-11-09T04:50:23;3.72;;;3.10;;
6823;SDS011;58633;49.470;11.004;2022-11-09T04:52:49;6.45;;;3.60;;
6823;SDS011;58633;49.470;11.004;2022-11-09T04:55:15;5.35;;;3.60;;
6823;SDS011;58633;49.470;11.004;2022-11-09T04:57:40;5.18;;;3.60;;
6823;SDS011;58633;49.470;11.004;2022-11-09T05:00:06;6.03;;;3.80;;
6823;SDS011;58633;49.470;11.004;2022-11-09T05:02:32;6.63;;;4.00;;
6823;SDS011;58633;49.470;11.004;2022-11-09T05:04:58;5.25;;;3.80;;
6823;SDS011;58633;49.470;11.004;2022-11-09T05:07:24;8.43;;;3.78;;
6823;SDS011;58633;49.470;11.004;2022-11-09T05:09:50;5.00;;;3.58;;
6823;SDS011;58633;49.470;11.004;2022-11-09T05:12:15;7.10;;;3.95;;
6823;SDS011;58633;49.470;11.004;2022-11-09T05:14:40;6.35;;;4.22;;
6823;SDS011;58633;49.470;11.004;2022-11-09T05:17:06;8.82;;;4.45;;
6823;SDS011;58633;49.470;11.004;2022-11-09T05:19:32;7.13;;;4.25;;
6823;SDS011;58633;49.470;11.004;2022-11-09T05:21:58;9.25;;;4.10;;
6823;SDS011;58633;49.470;11.004;2022-11-09T05:24:44;7.50;;;4.28;;
6823;SDS011;58633;49.470;11.004;2022-11-09T05:27:10;6.05;;;3.83;;
6823;SDS011;58633;49.470;11.004;2022-11-09T05:29:36;10.77;;;4.75;;
6823;SDS011;58633;49.470;11.004;2022-11-09T05:32:02;9.25;;;4.53;;
6823;SDS011;58633;49.470;11.004;2022-11-09T05:34:28;5.93;;;4.50;;
6823;SDS011;58633;49.470;11.004;2022-11-09T05:36:53;6.63;;;4.10;;
6823;SDS011;58633;49.470;11.004;2022-11-09T05:39:19;6.03;;;3.42;;
6823;SDS011;58633;49.470;11.004;2022-11-09T05:41:44;5.47;;;3.70;;
6823;SDS011;58633;49.470;11.004;2022-11-09T05:44:10;7.55;;;3.22;;
6823;SDS011;58633;49.470;11.004;2022-11-09T05:46:35;4.25;;;3.50;;
6823;SDS011;58633;49.470;11.004;2022-11-09T05:49:02;6.07;;;4.00;;
6823;SDS011;58633;49.470;11.004;2022-11-09T05:51:28;4.47;;;4.00;;
6823;SDS011;58633;49.470;11.004;2022-11-09T05:53:53;7.72;;;4.47;;
6823;SDS011;58633;49.470;11.004;2022-11-09T05:56:19;5.93;;;3.75;;
6823;SDS011;58633;49.470;11.004;2022-11-09T05:58:45;6.55;;;3.60;;
6823;SDS011;58633;49.470;11.004;2022-11-09T06:01:12;9.07;;;3.63;;
6823;SDS011;58633;49.470;11.004;2022-11-09T06:03:39;5.45;;;3.30;;
6823;SDS011;58633;49.470;11.004;2022-11-09T06:06:08;6.43;;;3.60;;
6823;SDS011;58633;49.470;11.004;2022-11-09T06:08:36;5.00;;;3.90;;
6823;SDS011;58633;49.470;11.004;2022-11-09T06:11:03;6.10;;;3.58;;
6823;SDS011;58633;49.470;11.004;2022-11-09T06:13:30;6.07;;;3.80;;
6823;SDS011;58633;49.470;11.004;2022-11-09T06:15:57;7.00;;;4.97;;
6823;SDS011;58633;49.470;11.004;2022-11-09T06:18:26;9.77;;;5.30;;
6823;SDS011;58633;49.470;11.004;2022-11-09T06:20:53;10.18;;;4.80;;
6823;SDS011;58633;49.470;11.004;2022-11-09T06:23:20;5.93;;;4.40;;
6823;SDS011;58633;49.470;11.004;2022-11-09T06:25:59;7.20;;;4.75;;
6823;SDS011;58633;49.470;11.004;2022-11-09T06:28:27;6.50;;;4.50;;
6823;SDS011;58633;49.470;11.004;2022-11-09T06:30:57;6.70;;;4.75;;
6823;SDS011;58633;49.470;11.004;2022-11-09T06:33:24;9.65;;;5.13;;
6823;SDS011;58633;49.470;11.004;2022-11-09T06:35:50;11.73;;;6.30;;
6823;SDS011;58633;49.470;11.004;2022-11-09T06:38:16;9.77;;;5.32;;
6823;SDS011;58633;49.470;11.004;2022-11-09T06:40:42;10.70;;;5.93;;
6823;SDS011;58633;49.470;11.004;2022-11-09T06:43:08;8.98;;;5.80;;
6823;SDS011;58633;49.470;11.004;2022-11-09T06:45:34;10.93;;;5.93;;
6823;SDS011;58633;49.470;11.004;2022-11-09T06:48:00;8.98;;;5.70;;
6823;SDS011;58633;49.470;11.004;2022-11-09T06:50:29;9.98;;;5.50;;
6823;SDS011;58633;49.470;11.004;2022-11-09T06:52:57;8.18;;;5.25;;
6823;SDS011;58633;49.470;11.004;2022-11-09T06:55:27;11.85;;;6.10;;
6823;SDS011;58633;49.470;11.004;2022-11-09T06:57:55;9.73;;;5.13;;
6823;SDS011;58633;49.470;11.004;2022-11-09T07:00:22;9.95;;;4.90;;
6823;SDS011;58633;49.470;11.004;2022-11-09T07:02:49;8.73;;;4.95;;
6823;SDS011;58633;49.470;11.004;2022-11-09T07:05:15;7.20;;;4.93;;
6823;SDS011;58633;49.470;11.004;2022-11-09T07:07:40;8.70;;;5.22;;
6823;SDS011;58633;49.470;11.004;2022-11-09T07:10:06;8.70;;;5.07;;
6823;SDS011;58633;49.470;11.004;2022-11-09T07:12:32;10.30;;;5.70;;
6823;SDS011;58633;49.470;11.004;2022-11-09T07:14:59;11.85;;;5.35;;
6823;SDS011;58633;49.470;11.004;2022-11-09T07:17:25;9.63;;;6.15;;
6823;SDS011;58633;49.470;11.004;2022-11-09T07:19:53;12.98;;;5.53;;
6823;SDS011;58633;49.470;11.004;2022-11-09T07:22:18;8.07;;;5.00;;
6823;SDS011;58633;49.470;11.004;2022-11-09T07:24:44;14.57;;;5.15;;
6823;SDS011;58633;49.470;11.004;2022-11-09T07:27:10;11.15;;;5.40;;
6823;SDS011;58633;49.470;11.004;2022-11-09T07:29:36;6.95;;;4.68;;
6823;SDS011;58633;49.470;11.004;2022-11-09T07:32:02;10.93;;;5.35;;
6823;SDS011;58633;49.470;11.004;2022-11-09T07:34:28;8.80;;;5.72;;
6823;SDS011;58633;49.470;11.004;2022-11-09T07:36:54;8.50;;;6.13;;
6823;SDS011;58633;49.470;11.004;2022-11-09T07:39:20;7.65;;;5.55;;
6823;SDS011;58633;49.470;11.004;2022-11-09T07:41:46;7.15;;;5.30;;
6823;SDS011;58633;49.470;11.004;2022-11-09T07:44:12;7.80;;;5.47;;
6823;SDS011;58633;49.470;11.004;2022-11-09T07:46:42;11.82;;;6.40;;
6823;SDS011;58633;49.470;11.004;2022-11-09T07:49:08;7.20;;;5.40;;
6823;SDS011;58633;49.470;11.004;2022-11-09T07:51:34;8.40;;;5.55;;
6823;SDS011;58633;49.470;11.004;2022-11-09T07:54:00;8.63;;;5.60;;
6823;SDS011;58633;49.470;11.004;2022-11-09T07:56:26;8.00;;;5.53;;
6823;SDS011;58633;49.470;11.004;2022-11-09T07:58:52;11.50;;;5.20;;
6823;SDS011;58633;49.470;11.004;2022-11-09T08:01:18;9.30;;;6.30;;
6823;SDS011;58633;49.470;11.004;2022-11-09T08:03:43;9.02;;;5.40;;
6823;SDS011;58633;49.470;11.004;2022-11-09T08:06:09;12.35;;;6.25;;
6823;SDS011;58633;49.470;11.004;2022-11-09T08:08:35;9.80;;;5.90;;
6823;SDS011;58633;49.470;11.004;2022-11-09T08:11:01;8.50;;;5.43;;
6823;SDS011;58633;49.470;11.004;2022-11-09T08:13:28;8.40;;;5.53;;
6823;SDS011;58633;49.470;11.004;2022-11-09T08:15:54;5.80;;;4.50;;
6823;SDS011;58633;49.470;11.004;2022-11-09T08:18:20;7.75;;;5.32;;
6823;SDS011;58633;49.470;11.004;2022-11-09T08:20:46;6.43;;;4.72;;
6823;SDS011;58633;49.470;11.004;2022-11-09T08:23:13;6.88;;;5.13;;
6823;SDS011;58633;49.470;11.004;2022-11-09T08:25:41;6.00;;;4.72;;
6823;SDS011;58633;49.470;11.004;2022-11-09T08:28:07;7.38;;;5.15;;
6823;SDS011;58633;49.470;11.004;2022-11-09T08:30:33;7.60;;;5.20;;
6823;SDS011;58633;49.470;11.004;2022-11-09T08:33:00;8.52;;;5.35;;
6823;SDS011;58633;49.470;11.004;2022-11-09T08:35:27;7.55;;;5.32;;
6823;SDS011;58633;49.470;11.004;2022-11-09T08:37:53;9.75;;;5.53;;
6823;SDS011;58633;49.470;11.004;2022-11-09T08:40:20;7.03;;;5.50;;
6823;SDS011;58633;49.470;11.004;2022-11-09T08:42:47;8.02;;;5.50;;
6823;SDS011;58633;49.470;11.004;2022-11-09T08:45:13;8.80;;;5.35;;
6823;SDS011;58633;49.470;11.004;2022-11-09T08:47:40;9.40;;;5.32;;
6823;SDS011;58633;49.470;11.004;2022-11-09T08:50:07;6.97;;;4.95;;
6823;SDS011;58633;49.470;11.004;2022-11-09T08:52:34;7.97;;;5.60;;
6823;SDS011;58633;49.470;11.004;2022-11-09T08:54:59;6.90;;;5.18;;
6823;SDS011;58633;49.470;11.004;2022-11-09T08:57:25;6.95;;;4.97;;
6823;SDS011;58633;49.470;11.004;2022-11-09T08:59:51;9.18;;;5.20;;
6823;SDS011;58633;49.470;11.004;2022-11-09T09:02:17;10.82;;;5.65;;
6823;SDS011;58633;49.470;11.004;2022-11-09T09:04:44;7.10;;;5.20;;
6823;SDS011;58633;49.470;11.004;2022-11-09T09:07:10;10.60;;;6.40;;
6823;SDS011;58633;49.470;11.004;2022-11-09T09:09:35;9.85;;;5.57;;
6823;SDS011;58633;49.470;11.004;2022-11-09T09:12:02;8.32;;;5.10;;
6823;SDS011;58633;49.470;11.004;2022-11-09T09:14:30;6.88;;;4.93;;
6823;SDS011;58633;49.470;11.004;2022-11-09T09:16:56;6.95;;;4.70;;
6823;SDS011;58633;49.470;11.004;2022-11-09T09:19:21;6.78;;;4.78;;
6823;SDS011;58633;49.470;11.004;2022-11-09T09:21:47;6.75;;;4.95;;
6823;SDS011;58633;49.470;11.004;2022-11-09T09:24:13;10.15;;;5.25;;
6823;SDS011;58633;49.470;11.004;2022-11-09T09:26:39;8.60;;;5.75;;
6823;SDS011;58633;49.470;11.004;2022-11-09T09:29:05;6.40;;;5.07;;
6823;SDS011;58633;49.470;11.004;2022-11-09T09:31:31;7.20;;;5.40;;
6823;SDS011;58633;49.470;11.004;2022-11-09T09:33:56;9.75;;;5.35;;
6823;SDS011;58633;49.470;11.004;2022-11-09T09:36:22;9.98;;;4.80;;
6823;SDS011;58633;49.470;11.004;2022-11-09T09:38:49;9.38;;;5.85;;
6823;SDS011;58633;49.470;11.004;2022-11-09T09:41:19;8.73;;;5.35;;
6823;SDS011;58633;49.470;11.004;2022-11-09T09:43:48;8.20;;;5.35;;
6823;SDS011;58633;49.470;11.004;2022-11-09T09:46:29;6.68;;;5.30;;
6823;SDS011;58633;49.470;11.004;2022-11-09T09:49:12;7.93;;;5.25;;
6823;SDS011;58633;49.470;11.004;2022-11-09T09:51:52;9.70;;;5.70;;
6823;SDS011;58633;49.470;11.004;2022-11-09T09:54:35;7.20;;;5.35;;
6823;SDS011;58633;49.470;11.004;2022-11-09T09:57:10;10.20;;;5.50;;
6823;SDS011;58633;49.470;11.004;2022-11-09T09:59:41;7.70;;;5.78;;
6823;SDS011;58633;49.470;11.004;2022-11-09T10:04:49;6.78;;;5.43;;
6823;SDS011;58633;49.470;11.004;2022-11-09T10:07:29;6.70;;;5.35;;
6823;SDS011;58633;49.470;11.004;2022-11-09T10:10:05;5.93;;;5.30;;
6823;SDS011;58633;49.470;11.004;2022-11-09T10:12:36;9.20;;;5.78;;
6823;SDS011;58633;49.470;11.004;2022-11-09T10:15:15;10.63;;;6.20;;
6823;SDS011;58633;49.470;11.004;2022-11-09T10:18:08;9.20;;;6.03;;
6823;SDS011;58633;49.470;11.004;2022-11-09T10:25:59;10.07;;;6.43;;
6823;SDS011;58633;49.470;11.004;2022-11-09T10:28:48;9.02;;;6.38;;
6823;SDS011;58633;49.470;11.004;2022-11-09T10:31:19;11.40;;;6.57;;
6823;SDS011;58633;49.470;11.004;2022-11-09T10:33:47;11.10;;;6.97;;
6823;SDS011;58633;49.470;11.004;2022-11-09T10:39:22;10.27;;;6.65;;
6823;SDS011;58633;49.470;11.004;2022-11-09T10:41:50;7.85;;;6.30;;
6823;SDS011;58633;49.470;11.004;2022-11-09T10:44:17;8.60;;;6.45;;
6823;SDS011;58633;49.470;11.004;2022-11-09T10:49:29;9.68;;;6.57;;
6823;SDS011;58633;49.470;11.004;2022-11-09T10:51:55;9.65;;;6.43;;
6823;SDS011;58633;49.470;11.004;2022-11-09T10:54:25;7.43;;;5.95;;
6823;SDS011;58633;49.470;11.004;2022-11-09T10:59:49;8.65;;;6.53;;
6823;SDS011;58633;49.470;11.004;2022-11-09T11:07:23;7.20;;;5.47;;
6823;SDS011;58633;49.470;11.004;2022-11-09T11:09:49;6.70;;;5.70;;
6823;SDS011;58633;49.470;11.004;2022-11-09T11:12:16;7.70;;;5.28;;
6823;SDS011;58633;49.470;11.004;2022-11-09T11:14:46;7.35;;;5.57;;
6823;SDS011;58633;49.470;11.004;2022-11-09T11:17:28;8.70;;;6.00;;
6823;SDS011;58633;49.470;11.004;2022-11-09T11:20:16;8.43;;;5.40;;
6823;SDS011;58633;49.470;11.004;2022-11-09T11:23:31;8.70;;;5.45;;
6823;SDS011;58633;49.470;11.004;2022-11-09T11:28:20;9.18;;;5.53;;
6823;SDS011;58633;49.470;11.004;2022-11-09T11:30:56;6.80;;;5.28;;
6823;SDS011;58633;49.470;11.004;2022-11-09T11:33:22;6.97;;;5.40;;
6823;SDS011;58633;49.470;11.004;2022-11-09T11:57:26;5.35;;;4.30;;
6823;SDS011;58633;49.470;11.004;2022-11-09T12:00:08;4.57;;;4.15;;
6823;SDS011;58633;49.470;11.004;2022-11-09T12:13:22;4.32;;;3.92;;
6823;SDS011;58633;49.470;11.004;2022-11-09T12:16:14;4.47;;;3.83;;
6823;SDS011;58633;49.470;11.004;2022-11-09T12:24:22;5.45;;;4.15;;
6823;SDS011;58633;49.470;11.004;2022-11-09T12:30:08;4.25;;;3.85;;
6823;SDS011;58633;49.470;11.004;2022-11-09T12:32:50;3.90;;;3.40;;
6823;SDS011;58633;49.470;11.004;2022-11-09T12:35:27;5.13;;;3.67;;
6823;SDS011;58633;49.470;11.004;2022-11-09T12:40:47;4.75;;;3.50;;
6823;SDS011;58633;49.470;11.004;2022-11-09T12:43:26;3.95;;;3.58;;
6823;SDS011;58633;49.470;11.004;2022-11-09T12:45:56;5.10;;;3.47;;
6823;SDS011;58633;49.470;11.004;2022-11-09T12:50:54;6.07;;;3.45;;
6823;SDS011;58633;49.470;11.004;2022-11-09T12:53:21;4.45;;;3.10;;
6823;SDS011;58633;49.470;11.004;2022-11-09T12:56:12;3.60;;;3.30;;
6823;SDS011;58633;49.470;11.004;2022-11-09T12:58:45;4.32;;;3.80;;
6823;SDS011;58633;49.470;11.004;2022-11-09T13:01:58;3.72;;;3.28;;
6823;SDS011;58633;49.470;11.004;2022-11-09T13:03:59;3.78;;;3.28;;
6823;SDS011;58633;49.470;11.004;2022-11-09T13:06:30;3.70;;;3.40;;
6823;SDS011;58633;49.470;11.004;2022-11-09T13:09:06;6.05;;;4.82;;
6823;SDS011;58633;49.470;11.004;2022-11-09T13:11:46;6.22;;;5.57;;
6823;SDS011;58633;49.470;11.004;2022-11-09T13:16:55;6.30;;;4.22;;
6823;SDS011;58633;49.470;11.004;2022-11-09T13:24:53;4.85;;;3.65;;
6823;SDS011;58633;49.470;11.004;2022-11-09T13:30:00;3.28;;;2.97;;
6823;SDS011;58633;49.470;11.004;2022-11-09T13:32:26;4.20;;;3.45;;
6823;SDS011;58633;49.470;11.004;2022-11-09T13:34:55;5.80;;;3.50;;
6823;SDS011;58633;49.470;11.004;2022-11-09T13:43:00;4.38;;;3.70;;
6823;SDS011;58633;49.470;11.004;2022-11-09T13:45:31;4.85;;;3.65;;
6823;SDS011;58633;49.470;11.004;2022-11-09T13:51:02;4.50;;;3.50;;
6823;SDS011;58633;49.470;11.004;2022-11-09T13:56:21;4.80;;;4.10;;
6823;SDS011;58633;49.470;11.004;2022-11-09T13:58:52;4.88;;;3.50;;
6823;SDS011;58633;49.470;11.004;2022-11-09T14:01:32;4.20;;;3.60;;
6823;SDS011;58633;49.470;11.004;2022-11-09T14:03:59;7.80;;;5.15;;
6823;SDS011;58633;49.470;11.004;2022-11-09T14:06:29;5.28;;;4.13;;
6823;SDS011;58633;49.470;11.004;2022-11-09T14:08:57;3.90;;;3.50;;
6823;SDS011;58633;49.470;11.004;2022-11-09T14:17:16;5.45;;;3.55;;
6823;SDS011;58633;49.470;11.004;2022-11-09T14:22:13;6.65;;;3.70;;
6823;SDS011;58633;49.470;11.004;2022-11-09T14:24:40;5.97;;;3.28;;
6823;SDS011;58633;49.470;11.004;2022-11-09T14:27:13;4.13;;;3.40;;
6823;SDS011;58633;49.470;11.004;2022-11-09T14:29:46;6.53;;;3.03;;
6823;SDS011;58633;49.470;11.004;2022-11-09T14:32:24;9.95;;;5.07;;
6823;SDS011;58633;49.470;11.004;2022-11-09T14:34:49;10.38;;;4.07;;
6823;SDS011;58633;49.470;11.004;2022-11-09T14:37:15;6.82;;;4.25;;
6823;SDS011;58633;49.470;11.004;2022-11-09T14:39:42;10.05;;;4.00;;
6823;SDS011;58633;49.470;11.004;2022-11-09T14:42:18;7.82;;;4.30;;
6823;SDS011;58633;49.470;11.004;2022-11-09T14:44:46;6.53;;;4.72;;
6823;SDS011;58633;49.470;11.004;2022-11-09T14:47:21;5.25;;;4.10;;
6823;SDS011;58633;49.470;11.004;2022-11-09T14:49:54;8.45;;;4.18;;
6823;SDS011;58633;49.470;11.004;2022-11-09T14:52:21;7.72;;;4.45;;
6823;SDS011;58633;49.470;11.004;2022-11-09T14:54:51;8.38;;;4.72;;
6823;SDS011;58633;49.470;11.004;2022-11-09T14:57:18;6.97;;;4.68;;
6823;SDS011;58633;49.470;11.004;2022-11-09T14:59:45;5.95;;;4.38;;
6823;SDS011;58633;49.470;11.004;2022-11-09T15:02:14;8.05;;;4.25;;
6823;SDS011;58633;49.470;11.004;2022-11-09T15:07:27;6.95;;;4.68;;
6823;SDS011;58633;49.470;11.004;2022-11-09T15:09:56;7.72;;;4.50;;
6823;SDS011;58633;49.470;11.004;2022-11-09T15:12:24;6.80;;;4.63;;
6823;SDS011;58633;49.470;11.004;2022-11-09T15:14:55;5.40;;;4.82;;
6823;SDS011;58633;49.470;11.004;2022-11-09T15:19:55;9.98;;;4.75;;
6823;SDS011;58633;49.470;11.004;2022-11-09T15:30:33;7.30;;;5.05;;
6823;SDS011;58633;49.470;11.004;2022-11-09T15:35:47;7.50;;;5.07;;
6823;SDS011;58633;49.470;11.004;2022-11-09T15:38:31;8.85;;;5.43;;
6823;SDS011;58633;49.470;11.004;2022-11-09T15:40:57;7.88;;;5.30;;
6823;SDS011;58633;49.470;11.004;2022-11-09T15:43:23;9.05;;;5.78;;
6823;SDS011;58633;49.470;11.004;2022-11-09T15:45:49;8.70;;;5.53;;
6823;SDS011;58633;49.470;11.004;2022-11-09T15:48:14;10.85;;;6.90;;
6823;SDS011;58633;49.470;11.004;2022-11-09T15:50:40;8.98;;;6.00;;
6823;SDS011;58633;49.470;11.004;2022-11-09T15:53:07;7.35;;;5.82;;
6823;SDS011;58633;49.470;11.004;2022-11-09T15:55:36;10.50;;;5.65;;
6823;SDS011;58633;49.470;11.004;2022-11-09T15:58:02;8.48;;;5.90;;
6823;SDS011;58633;49.470;11.004;2022-11-09T16:00:28;9.02;;;5.50;;
6823;SDS011;58633;49.470;11.004;2022-11-09T16:02:54;6.95;;;5.55;;
6823;SDS011;58633;49.470;11.004;2022-11-09T16:05:19;10.55;;;5.65;;
6823;SDS011;58633;49.470;11.004;2022-11-09T16:07:47;8.38;;;5.30;;
6823;SDS011;58633;49.470;11.004;2022-11-09T16:10:14;7.35;;;5.30;;
6823;SDS011;58633;49.470;11.004;2022-11-09T16:12:40;8.23;;;5.32;;
6823;SDS011;58633;49.470;11.004;2022-11-09T16:15:05;12.98;;;5.60;;
6823;SDS011;58633;49.470;11.004;2022-11-09T16:17:32;11.70;;;5.72;;
6823;SDS011;58633;49.470;11.004;2022-11-09T16:19:58;8.27;;;5.88;;
6823;SDS011;58633;49.470;11.004;2022-11-09T16:22:27;8.63;;;6.28;;
6823;SDS011;58633;49.470;11.004;2022-11-09T16:24:54;9.00;;;6.57;;
6823;SDS011;58633;49.470;11.004;2022-11-09T16:27:20;9.00;;;6.30;;
6823;SDS011;58633;49.470;11.004;2022-11-09T16:29:46;15.23;;;7.00;;
6823;SDS011;58633;49.470;11.004;2022-11-09T16:32:12;8.65;;;6.70;;
6823;SDS011;58633;49.470;11.004;2022-11-09T16:34:37;11.10;;;7.28;;
6823;SDS011;58633;49.470;11.004;2022-11-09T16:37:03;10.05;;;7.65;;
6823;SDS011;58633;49.470;11.004;2022-11-09T16:39:30;10.23;;;7.43;;
6823;SDS011;58633;49.470;11.004;2022-11-09T16:41:57;10.15;;;7.47;;
6823;SDS011;58633;49.470;11.004;2022-11-09T16:44:25;10.45;;;7.07;;
6823;SDS011;58633;49.470;11.004;2022-11-09T16:47:00;11.82;;;7.93;;
6823;SDS011;58633;49.470;11.004;2022-11-09T16:49:27;10.82;;;8.20;;
6823;SDS011;58633;49.470;11.004;2022-11-09T16:51:53;13.57;;;7.10;;